createdAt,value
2019-04-12T00:00:50.227Z," 6.52"
2019-04-12T00:05:45.874Z," 6.49"
2019-04-12T00:10:41.579Z," 6.57"
2019-04-12T00:15:37.379Z," 6.48"
2019-04-12T00:20:33.321Z," 6.42"
2019-04-12T00:25:29.280Z," 6.35"
2019-04-12T00:30:24.841Z," 6.35"
2019-04-12T00:35:21.648Z," 6.27"
2019-04-12T00:40:17.636Z," 6.36"
2019-04-12T00:45:13.294Z," 6.35"
2019-04-12T00:50:12.017Z," 6.35"
2019-04-12T00:55:06.799Z," 6.22"
2019-04-12T01:00:03.302Z," 6.26"
2019-04-12T01:04:59.247Z," 6.30"
2019-04-12T01:09:55.028Z," 6.27"
2019-04-12T01:14:50.650Z," 6.22"
2019-04-12T01:19:46.035Z," 6.22"
2019-04-12T01:24:41.944Z," 6.08"
2019-04-12T01:29:37.508Z," 6.01"
2019-04-12T01:34:33.088Z," 6.09"
2019-04-12T01:39:28.774Z," 6.04"
2019-04-12T01:44:24.422Z," 6.01"
2019-04-12T01:49:20.075Z," 6.05"
2019-04-12T01:54:17.219Z," 6.07"
2019-04-12T01:59:12.569Z," 5.98"
2019-04-12T02:04:08.239Z," 5.86"
2019-04-12T02:09:04.062Z," 5.80"
2019-04-12T02:14:00.633Z," 5.84"
2019-04-12T02:18:55.888Z," 5.89"
2019-04-12T02:23:51.786Z," 5.86"
2019-04-12T02:28:47.467Z," 5.79"
2019-04-12T02:33:43.251Z," 5.73"
2019-04-12T02:38:38.639Z," 5.73"
2019-04-12T02:43:34.225Z," 5.80"
2019-04-12T02:48:29.778Z," 5.72"
2019-04-12T02:53:25.618Z," 5.79"
2019-04-12T02:58:22.317Z," 5.71"
2019-04-12T03:03:17.723Z," 5.72"
2019-04-12T03:08:13.277Z," 5.64"
2019-04-12T03:13:08.813Z," 5.56"
2019-04-12T03:18:04.716Z," 5.47"
2019-04-12T03:23:00.421Z," 5.51"
2019-04-12T03:27:55.966Z," 5.50"
2019-04-12T03:32:51.658Z," 5.56"
2019-04-12T03:37:47.405Z," 5.53"
2019-04-12T03:42:42.940Z," 5.32"
2019-04-12T03:47:38.589Z," 5.26"
2019-04-12T03:52:34.081Z," 5.20"
2019-04-12T03:57:29.715Z," 5.26"
2019-04-12T04:02:26.320Z," 5.20"
2019-04-12T04:07:21.465Z," 5.18"
2019-04-12T04:12:16.919Z," 5.25"
2019-04-12T04:17:13.174Z," 5.14"
2019-04-12T04:22:08.745Z," 5.15"
2019-04-12T04:27:04.262Z," 5.20"
2019-04-12T04:32:00.326Z," 5.07"
2019-04-12T04:36:55.651Z," 5.00"
2019-04-12T04:41:51.744Z," 4.90"
2019-04-12T04:46:47.292Z," 4.92"
2019-04-12T04:51:43.392Z," 4.86"
2019-04-12T04:56:39.113Z," 4.93"
2019-04-12T05:01:34.336Z," 4.94"
2019-04-12T05:06:31.113Z," 4.82"
2019-04-12T05:11:26.344Z," 4.86"
2019-04-12T05:16:21.929Z," 4.75"
2019-04-12T05:21:17.303Z," 4.74"
2019-04-12T05:26:13.024Z," 4.71"
2019-04-12T05:31:10.495Z," 4.74"
2019-04-12T05:36:06.408Z," 4.82"
2019-04-12T05:41:02.185Z," 4.71"
2019-04-12T05:45:58.427Z," 4.77"
2019-04-12T05:50:54.043Z," 4.77"
2019-04-12T05:55:49.759Z," 4.67"
2019-04-12T06:00:45.804Z," 4.84"
2019-04-12T06:05:42.560Z," 4.68"
2019-04-12T06:10:38.760Z," 4.96"
2019-04-12T06:15:34.412Z," 4.90"
2019-04-12T06:20:30.214Z," 4.84"
2019-04-12T06:25:26.413Z," 4.87"
2019-04-12T06:30:22.079Z," 4.87"
2019-04-12T06:35:17.980Z," 4.84"
2019-04-12T06:40:13.865Z," 4.82"
2019-04-12T06:45:10.680Z," 4.75"
2019-04-12T06:50:05.988Z," 4.89"
2019-04-12T06:55:02.022Z," 4.96"
2019-04-12T06:59:58.043Z," 4.93"
2019-04-12T07:04:53.607Z," 5.02"
2019-04-12T07:09:49.369Z," 5.05"
2019-04-12T07:14:45.130Z," 5.08"
2019-04-12T07:19:40.878Z," 5.17"
2019-04-12T07:24:36.715Z," 5.36"
2019-04-12T07:29:32.815Z," 5.48"
2019-04-12T07:34:28.910Z," 5.53"
2019-04-12T07:39:24.350Z," 5.25"
2019-04-12T07:44:20.068Z," 5.38"
2019-04-12T07:49:15.728Z," 5.46"
2019-04-12T07:54:11.347Z," 5.33"
2019-04-12T07:59:07.067Z," 5.35"
2019-04-12T08:04:02.521Z," 5.11"
2019-04-12T08:08:58.337Z," 5.28"
2019-04-12T08:13:54.220Z," 5.47"
2019-04-12T08:18:49.909Z," 5.46"
2019-04-12T08:23:45.707Z," 5.51"
2019-04-12T08:28:41.464Z," 5.59"
2019-04-12T08:33:37.947Z," 5.72"
2019-04-12T08:38:34.850Z," 5.86"
2019-04-12T08:43:30.503Z," 6.01"
2019-04-12T08:48:27.916Z," 6.28"
2019-04-12T08:53:23.481Z," 6.33"
2019-04-12T08:58:19.287Z," 6.24"
2019-04-12T09:03:14.603Z," 6.28"
2019-04-12T09:08:10.160Z," 6.16"
2019-04-12T09:13:05.213Z," 5.73"
2019-04-12T09:18:01.066Z," 5.15"
2019-04-12T09:22:57.379Z," 5.05"
2019-04-12T09:27:52.610Z," 5.33"
2019-04-12T09:32:48.355Z," 5.47"
2019-04-12T09:37:45.385Z," 5.69"
2019-04-12T09:42:41.935Z," 6.01"
2019-04-12T09:47:38.381Z," 6.30"
2019-04-12T09:52:34.548Z," 6.27"
2019-04-12T09:57:30.314Z," 6.28"
2019-04-12T10:02:26.913Z," 6.52"
2019-04-12T10:07:23.301Z," 6.81"
2019-04-12T10:12:19.716Z," 7.14"
2019-04-12T10:17:14.935Z," 6.22"
2019-04-12T10:22:10.223Z," 6.24"
2019-04-12T10:27:05.899Z," 6.28"
2019-04-12T10:32:00.956Z," 6.22"
2019-04-12T10:36:58.217Z," 6.09"
2019-04-12T10:41:53.842Z," 5.91"
2019-04-12T10:46:49.736Z," 6.41"
2019-04-12T10:51:45.752Z," 6.44"
2019-04-12T10:56:41.537Z," 6.30"
2019-04-12T11:01:37.309Z," 6.39"
2019-04-12T11:06:33.070Z," 6.09"
2019-04-12T11:11:29.351Z," 5.93"
2019-04-12T11:16:27.135Z," 6.11"
2019-04-12T11:21:22.443Z," 6.01"
2019-04-12T11:26:18.062Z," 6.01"
2019-04-12T11:31:14.129Z," 5.91"
2019-04-12T11:36:09.911Z," 6.16"
2019-04-12T11:41:05.434Z," 5.72"
2019-04-12T11:46:01.187Z," 5.84"
2019-04-12T11:50:57.091Z," 6.05"
2019-04-12T11:55:54.042Z," 6.14"
2019-04-12T12:00:49.758Z," 6.24"
2019-04-12T12:05:45.503Z," 6.05"
2019-04-12T12:10:41.427Z," 6.22"
2019-04-12T12:15:37.923Z," 6.09"
2019-04-12T12:20:33.920Z," 6.42"
2019-04-12T12:25:29.898Z," 6.35"
2019-04-12T12:30:26.095Z," 6.38"
2019-04-12T12:35:22.122Z," 6.67"
2019-04-12T12:40:18.372Z," 6.45"
2019-04-12T12:45:13.909Z," 6.44"
2019-04-12T12:50:09.429Z," 6.02"
2019-04-12T12:55:04.799Z," 6.17"
2019-04-12T13:00:00.774Z," 6.08"
2019-04-12T13:04:56.776Z," 5.94"
2019-04-12T13:09:52.547Z," 6.05"
2019-04-12T13:14:49.237Z," 6.11"
2019-04-12T13:19:45.835Z," 5.87"
2019-04-12T13:24:42.161Z," 6.12"
2019-04-12T13:29:38.889Z," 6.36"
2019-04-12T13:34:34.472Z," 6.70"
2019-04-12T13:39:30.602Z," 6.64"
2019-04-12T13:44:26.221Z," 6.64"
2019-04-12T13:49:21.639Z," 6.42"
2019-04-12T13:54:16.833Z," 6.42"
2019-04-12T13:59:12.840Z," 6.63"
2019-04-12T14:04:08.590Z," 6.48"
2019-04-12T14:09:04.394Z," 6.54"
2019-04-12T14:14:00.844Z," 6.52"
2019-04-12T14:18:57.688Z," 6.33"
2019-04-12T14:23:54.213Z," 6.42"
2019-04-12T14:28:50.331Z," 6.49"
2019-04-12T14:33:46.282Z," 6.26"
2019-04-12T14:38:41.698Z," 5.86"
2019-04-12T14:43:37.346Z," 6.11"
2019-04-12T14:48:33.036Z," 6.09"
2019-04-12T14:53:28.714Z," 6.11"
2019-04-12T14:58:24.415Z," 6.39"
2019-04-12T15:03:20.309Z," 6.54"
2019-04-12T15:08:17.082Z," 6.49"
2019-04-12T15:13:13.720Z," 6.35"
2019-04-12T15:18:09.068Z," 6.36"
2019-04-12T15:23:04.754Z," 6.39"
2019-04-12T15:28:00.427Z," 6.26"
2019-04-12T15:32:56.160Z," 6.35"
2019-04-12T15:37:54.071Z," 6.02"
2019-04-12T15:42:48.885Z," 5.87"
2019-04-12T15:47:45.117Z," 5.80"
2019-04-12T15:52:40.482Z," 5.98"
2019-04-12T15:57:36.346Z," 6.01"
2019-04-12T16:02:33.129Z," 6.04"
2019-04-12T16:07:28.824Z," 6.11"
2019-04-12T16:12:25.718Z," 6.30"
2019-04-12T16:17:20.940Z," 6.19"
2019-04-12T16:22:18.288Z," 6.14"
2019-04-12T16:27:13.340Z," 6.01"
2019-04-12T16:32:09.544Z," 5.99"
2019-04-12T16:37:06.321Z," 5.93"
2019-04-12T16:42:01.650Z," 6.17"
2019-04-12T16:46:58.175Z," 6.26"
2019-04-12T16:51:53.486Z," 6.69"
2019-04-12T16:56:49.311Z," 6.72"
2019-04-12T17:01:46.177Z," 6.57"
2019-04-12T17:06:41.650Z," 6.51"
2019-04-12T17:11:37.453Z," 6.31"
2019-04-12T17:16:33.219Z," 6.27"
2019-04-12T17:21:29.926Z," 6.11"
2019-04-12T17:26:26.214Z," 6.16"
2019-04-12T17:31:21.519Z," 6.17"
2019-04-12T17:36:17.251Z," 5.64"
2019-04-12T17:41:12.795Z," 5.47"
2019-04-12T17:46:09.336Z," 5.47"
2019-04-12T17:51:04.622Z," 5.29"
2019-04-12T17:56:01.219Z," 5.32"
2019-04-12T18:00:56.715Z," 5.29"
2019-04-12T18:10:51.811Z," 5.23"
2019-04-12T18:15:47.350Z," 5.30"
2019-04-12T18:20:42.865Z," 5.00"
2019-04-12T18:25:39.597Z," 4.99"
2019-04-12T18:30:35.070Z," 4.90"
2019-04-12T18:35:31.319Z," 4.82"
2019-04-12T18:40:26.720Z," 4.84"
2019-04-12T18:45:22.937Z," 4.66"
2019-04-12T18:50:18.199Z," 4.70"
2019-04-12T18:55:14.076Z," 4.75"
2019-04-12T19:00:10.830Z," 4.71"
2019-04-12T19:05:08.298Z," 4.67"
2019-04-12T19:10:03.580Z," 4.66"
2019-04-12T19:14:59.200Z," 4.66"
2019-04-12T19:19:54.952Z," 4.67"
2019-04-12T19:24:51.807Z," 4.59"
2019-04-12T19:29:46.682Z," 4.53"
2019-04-12T19:34:42.410Z," 4.49"
2019-04-12T19:39:38.083Z," 4.49"
2019-04-12T19:44:34.486Z," 4.52"
2019-04-12T19:49:31.191Z," 4.40"
2019-04-12T19:54:26.695Z," 4.52"
2019-04-12T19:59:23.718Z," 4.48"
2019-04-12T20:04:19.249Z," 4.49"
2019-04-12T20:09:14.855Z," 4.41"
2019-04-12T20:14:10.826Z," 4.38"
2019-04-12T20:19:06.457Z," 4.40"
2019-04-12T20:24:01.995Z," 4.37"
2019-04-12T20:28:57.686Z," 4.32"
2019-04-12T20:33:54.331Z," 4.24"
2019-04-12T20:38:49.782Z," 4.10"
2019-04-12T20:43:45.847Z," 4.01"
2019-04-12T20:48:42.558Z," 3.98"
2019-04-12T20:53:38.127Z," 3.98"
2019-04-12T20:58:34.820Z," 3.81"
2019-04-12T21:03:31.271Z," 3.88"
2019-04-12T21:08:27.015Z," 3.80"
2019-04-12T21:13:22.709Z," 3.92"
2019-04-12T21:18:18.697Z," 3.91"
2019-04-12T21:23:14.307Z," 3.94"
2019-04-12T21:28:09.969Z," 3.88"
2019-04-12T21:33:06.246Z," 3.88"
2019-04-12T21:38:02.557Z," 3.87"
2019-04-12T21:42:57.897Z," 3.91"
2019-04-12T21:47:53.693Z," 3.91"
2019-04-12T21:52:49.277Z," 3.87"
2019-04-12T21:57:45.211Z," 3.92"
2019-04-12T22:02:42.007Z," 3.88"
2019-04-12T22:07:37.415Z," 3.81"
2019-04-12T22:12:33.248Z," 3.80"
2019-04-12T22:17:29.481Z," 3.83"
2019-04-12T22:22:25.239Z," 3.81"
2019-04-12T22:27:20.892Z," 3.81"
2019-04-12T22:32:16.387Z," 3.69"
2019-04-12T22:37:12.122Z," 3.86"
2019-04-12T22:42:07.713Z," 3.78"
2019-04-12T22:47:04.406Z," 3.78"
2019-04-12T22:52:00.042Z," 3.78"
2019-04-12T22:56:55.436Z," 3.70"
2019-04-12T23:01:50.940Z," 3.66"
2019-04-12T23:06:46.621Z," 3.66"
2019-04-12T23:11:42.302Z," 3.68"
2019-04-12T23:16:38.376Z," 3.62"
2019-04-12T23:21:34.219Z," 3.70"
2019-04-12T23:26:29.913Z," 3.66"
2019-04-12T23:31:25.607Z," 3.59"
2019-04-12T23:36:21.125Z," 3.65"
2019-04-12T23:41:16.801Z," 3.62"
2019-04-12T23:46:14.170Z," 3.68"
2019-04-12T23:51:09.524Z," 3.47"
2019-04-12T23:56:05.096Z," 3.34"
